Ringgold, VA

11:52 AM EDT on July 29, 2015 (GMT -0400)
Danville Regional | Change Station
CLOSE
Current Station
Airport
Location: Danville,
Elevation: 571 ft
Nearby Weather Stations

Elev 571 ft 36.57 °N, 79.34 °W | Updated 59 minutes ago

Overcast
Overcast
80 °F
Feels Like 84 °F
N
5
Wind Variable Wind from West

Today
High -- | Low -- °F
--% Chance of Precip.
Yesterday
High -- | Low -- °F
Precip. -- in
6:20 AM 8:26 PM
Waxing Gibbous, 96% visible
Pressure 30.02 in
Visibility 10.0 miles
Clouds Overcast 1600 ft
Heat Index 84 °F
Dew Point 73 °F
Humidity 79%
Rainfall 0.00 in
Snow Depth Not available.
UV 2 out of 12
Pollen 3.50 out of 12
Air Quality Not available.
Flu Activity Not available.
METAR KDAN 291453Z AUTO 26004KT 10SM OVC016 27/23 A3005 RMK AO2 SLP165 T02670228 53002

More Conditions Fewer Conditions

Pressure 30.02 in
Visibility 10.0 miles
Clouds Overcast 1600 ft
Heat Index 84 °F
Dew Point 73 °F
Humidity 79%
Rainfall 0.00 in
Snow Depth Not available.
UV 2 out of 12
Pollen 3.50 out of 12
Air Quality Not available.
Flu Activity Not available.
METAR KDAN 291453Z AUTO 26004KT 10SM OVC016 27/23 A3005 RMK AO2 SLP165 T02670228 53002

More Conditions Fewer Conditions

10-Day Weather Forecast

Almanac

Astronomy

Jul. 29, 2015 Rise Set
Actual Time 6:20 AM EDT 8:26 PM EDT
Civil Twilight 5:52 AM EDT 8:54 PM EDT
Nautical Twilight 5:16 AM EDT 9:29 PM EDT
Astronomical Twilight 4:39 AM EDT 10:07 PM EDT
Moon 6:51 PM EDT 4:26 AM EDT
Length of Visible Light 15h 02m
Length of Day
14h 05m
Tomorrow will be 1m 40s shorter.
Waxing Gibbous, 96% of the Moon is Illuminated
Today
Waxing Gibbous
Jul 31
Full
Aug 6
Last Quarter
Aug 14
New
Aug 22
First Quarter

Today's Extremes

State Highs State Lows

Community

WunderPhotos

Upload Photos

1,842,120 photos uploaded!

WunderBlogs® & News

Nearby

Snow Depth

Station Depth Elevation
No new snow has been reported.

Earthquake Activity

City Distance Mag. Time & Date
No recent earthquake activity has been reported nearby.
Minimum magnitude displayed is 2.5.

Coastal Water Temperatures

Place Temperature
No Stations Reporting

Nearby Weather Stations